This is the latest recevied weather packets stored in our database for station/object K7UHP. If no packets are shown the sender has not sent any weather packets the latest 1 day(s).
| Time | Temp. | Humidity | Pressure | Rain* | Wind** | Luminosity | Snow |
|---|---|---|---|---|---|---|---|
| 1778032133 | 17.22° C | 43% | 1009.7 hPa | 0 mm | 0.45 m/s, 237° | - | - |
| 1778031503 | 17.22° C | 42% | 1009.6 hPa | 0 mm | 1.34 m/s, 224° | - | - |
| 1778030873 | 17.78° C | 40% | 1009.7 hPa | 0 mm | 0.89 m/s, 265° | - | - |
| 1778030243 | 17.78° C | 40% | 1009.7 hPa | 0 mm | 1.34 m/s, 230° | - | - |
| 1778029643 | 17.78° C | 39% | 1009.7 hPa | 0 mm | 0.89 m/s, 235° | - | - |
| 1778029013 | 17.78° C | 40% | 1009.7 hPa | 0 mm | 2.24 m/s, 242° | - | - |
| 1778028413 | 17.78° C | 39% | 1009.6 hPa | 0 mm | 0 m/s | - | - |
| 1778027813 | 17.78° C | 39% | 1009.8 hPa | 0 mm | 2.24 m/s, 220° | - | - |
| 1778027183 | 17.22° C | 40% | 1009.7 hPa | 0 mm | 1.34 m/s, 99° | - | - |
| 1778026583 | 17.22° C | 40% | 1009.8 hPa | 0 mm | 2.24 m/s, 270° | - | - |
| 1778025982 | 17.22° C | 40% | 1009.8 hPa | 0 mm | 0.45 m/s, 231° | - | - |
| 1778025382 | 17.22° C | 40% | 1009.8 hPa | 0 mm | 2.68 m/s, 233° | - | - |
| 1778024781 | 17.22° C | 40% | 1009.9 hPa | 0 mm | 3.13 m/s, 278° | - | - |
| 1778024180 | 17.22° C | 42% | 1009.9 hPa | 0 mm | 2.24 m/s, 238° | - | - |
| 1778023580 | 17.22° C | 42% | 1010 hPa | 0 mm | 0.45 m/s, 165° | - | - |
| 1778022979 | 16.67° C | 41% | 1010.1 hPa | 0 mm | 1.34 m/s, 244° | - | - |
| 1778022379 | 16.67° C | 40% | 1010.2 hPa | 0 mm | 2.24 m/s, 219° | - | - |
| 1778021779 | 16.67° C | 44% | 1010.2 hPa | 0 mm | 0.45 m/s, 173° | - | - |
| 1778021179 | 16.11° C | 44% | 1010.4 hPa | 0 mm | 2.24 m/s, 219° | - | - |
| 1778020549 | 16.11° C | 44% | 1010.5 hPa | 0 mm | 0.45 m/s, 85° | - | - |
| 1778019919 | 15.56° C | 48% | 1010.6 hPa | 0 mm | 0.45 m/s, 129° | - | - |
| 1778019289 | 14.44° C | 50% | 1010.8 hPa | 0 mm | 0.89 m/s, 111° | - | - |
| 1778018689 | 14.44° C | 51% | 1010.9 hPa | 0 mm | 0.45 m/s, 131° | - | - |
| 1778018059 | 13.89° C | 52% | 1011.1 hPa | 0.25 mm | 1.34 m/s, 159° | - | - |
| 1778017438 | 13.89° C | 53% | 1011.3 hPa | 0.25 mm | 0.89 m/s, 69° | - | - |
* Rain latest hour (hover to see other rain measurements)
** Current wind speed in m/s (hover to see current wind gust speed)